Terminal Aerodrome Forecast
Issued by NWS

Current Version | Previous Version | Graphics & Text | Print | Product List | Glossary On
Versions: 1 2 3 4 5 6 7 8 9 10 11 12 13 14 15 16 17 18 19 20 21 22 23 24 25
000
FTUS41 KRLX 300500
TAFCKB
TAF
KCKB 300538Z 3006/3106 27009G16KT 3SM -SN BR OVC010
     FM300700 27008G14KT 1 1/2SM -SN BR OVC008
     FM300900 30008G17KT 3SM -SN BR OVC010
     FM301700 30010G18KT P6SM BKN025
     FM310300 30007KT P6SM BKN015=

USA.gov is the U.S. government's official web portal to all federal, state and local government web resources and services.